Time;durP1;ratioP1;P1;durP2;ratioP2;P2;SDS_P1;SDS_P2;PMS_P1;PMS_P2;Temp;Humidity;BMP_temperature;BMP_pressure;BME280_temperature;BME280_humidity;BME280_pressure;Samples;Min_cycle;Max_cycle;Signal;HPM_P1;HPM_P2
2021/01/08 00:01:20;;;;;;;39.33;20.30;;;1.90;99.90;;;;;;5097814;28;20140;-72
2021/01/08 00:03:45;;;;;;;38.65;20.63;;;1.80;99.90;;;;;;5097774;28;20058;-71
2021/01/08 00:06:11;;;;;;;44.05;22.25;;;1.80;99.90;;;;;;5095944;28;20028;-71
2021/01/08 00:08:37;;;;;;;39.00;18.08;;;1.80;99.90;;;;;;5097378;28;20020;-72
2021/01/08 00:11:02;;;;;;;35.47;18.20;;;1.80;99.90;;;;;;5097057;28;20024;-71
2021/01/08 00:13:28;;;;;;;30.35;17.17;;;1.90;99.90;;;;;;5096336;28;20077;-71
2021/01/08 00:15:53;;;;;;;30.88;16.05;;;1.90;99.90;;;;;;5097543;28;20060;-71
2021/01/08 00:18:19;;;;;;;28.85;15.32;;;1.90;99.90;;;;;;5097216;28;20052;-71
2021/01/08 00:20:44;;;;;;;31.65;16.20;;;1.90;99.90;;;;;;5097454;28;20411;-71
2021/01/08 00:23:10;;;;;;;29.33;15.60;;;1.90;99.90;;;;;;5097414;28;20121;-71
2021/01/08 00:25:35;;;;;;;33.45;17.08;;;1.80;99.90;;;;;;5096594;28;20048;-71
2021/01/08 00:28:01;;;;;;;29.88;15.90;;;1.80;99.90;;;;;;5095901;28;20500;-71
2021/01/08 00:30:26;;;;;;;28.75;15.63;;;1.80;99.90;;;;;;5097259;28;20024;-71
2021/01/08 00:32:52;;;;;;;29.15;16.30;;;1.90;99.90;;;;;;5097202;28;20087;-71
2021/01/08 00:35:17;;;;;;;30.77;15.90;;;1.90;99.90;;;;;;5096891;28;20107;-71
2021/01/08 00:37:43;;;;;;;28.92;15.35;;;1.90;99.90;;;;;;5097140;28;20379;-71
2021/01/08 00:40:09;;;;;;;30.40;16.23;;;1.90;99.90;;;;;;5097066;28;20435;-71
2021/01/08 00:42:36;;;;;;;28.95;15.38;;;1.90;99.90;;;;;;5095317;28;20389;-71
2021/01/08 00:45:03;;;;;;;28.85;14.98;;;1.90;99.90;;;;;;5096966;28;20461;-71
2021/01/08 00:47:29;;;;;;;30.67;15.75;;;1.90;99.90;;;;;;5095538;28;20028;-71
2021/01/08 00:49:54;;;;;;;33.08;16.48;;;1.90;99.90;;;;;;5096898;28;20445;-71
2021/01/08 00:52:20;;;;;;;32.35;17.48;;;1.90;99.90;;;;;;5097146;28;20020;-71
2021/01/08 00:54:48;;;;;;;30.35;15.77;;;1.80;99.90;;;;;;5096814;28;20034;-71
2021/01/08 00:57:14;;;;;;;31.80;16.70;;;1.90;99.90;;;;;;5096341;28;20107;-71
2021/01/08 00:59:39;;;;;;;32.90;17.05;;;2.00;99.90;;;;;;5096736;28;20016;-71
2021/01/08 01:02:05;;;;;;;40.28;19.67;;;2.00;99.90;;;;;;5096123;28;20027;-71
2021/01/08 01:04:30;;;;;;;40.70;19.48;;;1.90;99.90;;;;;;5096513;28;20027;-71
2021/01/08 01:06:56;;;;;;;43.00;21.77;;;2.00;99.90;;;;;;5095453;28;20365;-71
2021/01/08 01:09:21;;;;;;;46.17;22.55;;;2.00;99.90;;;;;;5096531;28;20028;-71
2021/01/08 01:11:47;;;;;;;44.05;21.48;;;2.00;99.90;;;;;;5096475;28;20020;-71
2021/01/08 01:14:12;;;;;;;46.10;22.77;;;2.00;99.90;;;;;;5096427;28;20113;-71
2021/01/08 01:16:38;;;;;;;45.28;22.27;;;1.90;99.90;;;;;;5095872;28;20450;-71
2021/01/08 01:19:04;;;;;;;50.17;23.42;;;1.90;99.90;;;;;;5096340;28;20028;-71
2021/01/08 01:21:29;;;;;;;42.67;21.17;;;1.90;99.90;;;;;;5094511;28;20107;-71
2021/01/08 01:23:55;;;;;;;40.95;20.08;;;1.90;99.90;;;;;;5096028;28;20032;-72
2021/01/08 01:26:21;;;;;;;34.47;17.75;;;1.80;99.90;;;;;;5096145;28;20074;-71
2021/01/08 01:28:47;;;;;;;26.50;14.48;;;1.90;99.90;;;;;;5094383;28;20020;-72
2021/01/08 01:31:12;;;;;;;29.52;15.93;;;1.90;99.90;;;;;;5096083;28;20063;-71
2021/01/08 01:33:38;;;;;;;27.08;14.90;;;1.80;99.90;;;;;;5095524;28;20063;-71
2021/01/08 01:36:07;;;;;;;29.73;15.43;;;1.90;99.90;;;;;;5095769;28;20477;-71
2021/01/08 01:38:33;;;;;;;30.75;15.15;;;1.90;99.90;;;;;;5095714;28;20028;-71
2021/01/08 01:40:58;;;;;;;27.75;14.50;;;1.90;99.90;;;;;;5095923;28;20414;-71
2021/01/08 01:43:24;;;;;;;30.13;15.40;;;1.90;99.90;;;;;;5095857;28;20024;-71
2021/01/08 01:45:49;;;;;;;28.40;15.05;;;1.90;99.90;;;;;;5095423;28;20040;-71
2021/01/08 01:48:15;;;;;;;30.08;16.10;;;1.90;99.90;;;;;;5095760;28;20031;-71
2021/01/08 01:50:41;;;;;;;30.60;14.70;;;1.80;99.90;;;;;;5095437;28;20055;-71
2021/01/08 01:53:07;;;;;;;27.30;14.75;;;1.80;99.90;;;;;;5095687;28;20111;-71
2021/01/08 01:55:33;;;;;;;28.20;13.90;;;1.90;99.90;;;;;;5095376;28;20027;-71
2021/01/08 01:58:00;;;;;;;26.55;14.55;;;1.90;99.90;;;;;;5095019;28;20388;-71
2021/01/08 02:00:26;;;;;;;26.55;13.48;;;1.90;99.90;;;;;;5095534;28;20028;-71
2021/01/08 02:03:04;;;;;;;29.25;13.60;;;2.00;99.90;;;;;;5095240;28;20024;-71
2021/01/08 02:05:31;;;;;;;28.80;14.35;;;2.00;99.90;;;;;;5093925;28;20028;-71
2021/01/08 02:08:02;;;;;;;29.00;15.45;;;2.00;99.90;;;;;;5095419;28;20020;-71
2021/01/08 02:10:36;;;;;;;29.40;14.93;;;2.00;99.90;;;;;;5093628;28;20365;-71
2021/01/08 02:13:01;;;;;;;;;;;2.10;99.90;;;;;;5095757;28;20016;-71
2021/01/08 02:15:28;;;;;;;26.40;13.82;;;2.10;99.90;;;;;;5095281;28;19954;-72
2021/01/08 02:17:55;;;;;;;27.38;14.13;;;2.20;99.90;;;;;;5093442;28;20035;-71
2021/01/08 02:20:21;;;;;;;27.75;14.80;;;2.20;99.90;;;;;;5095155;28;20047;-71
2021/01/08 02:22:52;;;;;;;28.17;14.27;;;2.20;99.90;;;;;;5095163;28;20028;-71
2021/01/08 02:25:25;;;;;;;31.20;15.10;;;2.20;99.90;;;;;;5093342;28;20040;-71
2021/01/08 02:30:44;;;;;;;23.92;13.48;;;2.20;99.90;;;;;;5091887;28;20348;-72
2021/01/08 02:33:10;;;;;;;26.10;14.55;;;2.40;99.90;;;;;;5091322;28;20017;-71
2021/01/08 02:35:37;;;;;;;27.80;14.23;;;2.40;99.90;;;;;;5091553;28;20021;-71
2021/01/08 02:38:04;;;;;;;25.17;13.55;;;2.30;99.90;;;;;;5090095;28;20047;-72
2021/01/08 02:40:29;;;;;;;26.33;14.07;;;2.30;99.90;;;;;;5091507;28;20016;-70
2021/01/08 02:43:00;;;;;;;28.20;14.30;;;2.40;99.90;;;;;;5091434;28;20480;-71
2021/01/08 02:45:26;;;;;;;29.95;14.55;;;2.30;99.90;;;;;;5091089;28;20077;-71
2021/01/08 02:47:52;;;;;;;28.73;14.73;;;2.30;99.90;;;;;;5090775;28;20024;-72
2021/01/08 02:50:17;;;;;;;25.60;14.13;;;2.40;99.90;;;;;;5091220;28;20077;-72
2021/01/08 02:52:48;;;;;;;27.50;13.63;;;2.40;99.90;;;;;;5091241;28;20025;-71
2021/01/08 02:55:18;;;;;;;26.73;14.07;;;2.40;99.90;;;;;;5091206;28;20028;-72
2021/01/08 02:57:44;;;;;;;29.02;14.15;;;2.40;99.90;;;;;;5090600;28;20032;-72
2021/01/08 03:00:11;;;;;;;25.48;13.27;;;2.40;99.90;;;;;;5091137;28;20091;-72
2021/01/08 03:02:37;;;;;;;24.95;13.52;;;2.40;99.90;;;;;;5090798;28;20463;-72
2021/01/08 03:05:03;;;;;;;27.88;13.73;;;2.40;99.90;;;;;;5091019;28;20523;-72
2021/01/08 03:07:31;;;;;;;25.10;13.88;;;2.50;99.90;;;;;;5090955;28;20020;-72
2021/01/08 03:09:57;;;;;;;24.60;13.20;;;2.40;99.90;;;;;;5090575;28;20028;-72
2021/01/08 03:12:28;;;;;;;26.33;13.55;;;2.40;99.90;;;;;;5089911;28;20027;-70
2021/01/08 03:14:53;;;;;;;27.60;12.73;;;2.30;99.90;;;;;;5089042;28;20024;-69
2021/01/08 03:17:19;;;;;;;25.60;13.18;;;2.30;99.90;;;;;;5090212;28;20035;-70
2021/01/08 03:19:44;;;;;;;27.48;12.57;;;2.40;99.90;;;;;;5089298;28;20032;-72
2021/01/08 03:22:10;;;;;;;26.05;12.95;;;2.40;99.90;;;;;;5090691;28;20385;-70
2021/01/08 03:24:35;;;;;;;27.38;12.40;;;2.40;99.90;;;;;;5090614;28;20040;-70
2021/01/08 03:27:01;;;;;;;25.58;12.63;;;2.40;99.90;;;;;;5090611;28;20033;-70
2021/01/08 03:29:26;;;;;;;24.00;12.43;;;2.40;99.90;;;;;;5089951;28;20465;-71
2021/01/08 03:31:52;;;;;;;26.33;13.20;;;2.50;99.90;;;;;;5090219;28;20409;-70
2021/01/08 03:34:17;;;;;;;29.27;14.13;;;2.40;99.90;;;;;;5090425;28;20365;-71
2021/01/08 03:36:43;;;;;;;28.75;14.15;;;2.40;99.90;;;;;;5088956;28;20027;-70
2021/01/08 03:39:08;;;;;;;27.20;13.18;;;2.30;99.90;;;;;;5090350;28;20365;-70
2021/01/08 03:41:34;;;;;;;28.33;13.40;;;2.30;99.90;;;;;;5079708;28;20030;-70
2021/01/08 03:43:59;;;;;;;27.10;13.18;;;2.30;99.90;;;;;;5076738;28;20032;-70
2021/01/08 03:46:25;;;;;;;29.33;13.55;;;2.30;99.90;;;;;;5076740;28;20027;-70
2021/01/08 03:48:51;;;;;;;25.10;12.00;;;2.30;99.90;;;;;;5058351;28;20029;-71
2021/01/08 03:51:16;;;;;;;25.52;12.32;;;2.30;99.90;;;;;;5076650;28;20027;-70
2021/01/08 03:53:42;;;;;;;23.23;12.43;;;2.30;99.90;;;;;;5076627;28;20021;-72
2021/01/08 03:56:07;;;;;;;24.13;12.23;;;2.30;99.90;;;;;;5076253;28;20025;-72
2021/01/08 03:58:33;;;;;;;23.83;11.80;;;2.20;99.90;;;;;;5074702;28;20481;-72
2021/01/08 04:00:59;;;;;;;21.27;11.65;;;2.30;99.90;;;;;;5076451;28;20020;-71
2021/01/08 04:03:24;;;;;;;21.80;11.10;;;2.30;99.90;;;;;;5075317;28;20044;-71
2021/01/08 04:05:50;;;;;;;20.65;11.25;;;2.30;99.90;;;;;;5076089;28;20091;-71
2021/01/08 04:08:15;;;;;;;23.02;12.40;;;2.30;99.90;;;;;;5076323;28;20028;-71
2021/01/08 04:10:41;;;;;;;24.75;11.32;;;2.30;99.90;;;;;;5076217;28;20028;-72
2021/01/08 04:13:06;;;;;;;23.58;11.80;;;2.30;99.90;;;;;;5076255;28;20127;-71
2021/01/08 04:15:32;;;;;;;21.95;11.27;;;2.20;99.90;;;;;;5074406;28;20031;-71
2021/01/08 04:17:57;;;;;;;23.20;11.25;;;2.20;99.90;;;;;;5075894;28;20025;-71
2021/01/08 04:20:23;;;;;;;30.05;13.13;;;2.30;99.90;;;;;;5076112;28;20365;-71
2021/01/08 04:22:48;;;;;;;24.75;12.27;;;2.20;99.90;;;;;;5076053;28;20032;-71
2021/01/08 04:25:14;;;;;;;24.38;12.18;;;2.20;99.90;;;;;;5076040;28;20031;-71
2021/01/08 04:27:39;;;;;;;25.92;13.32;;;2.20;99.90;;;;;;5074540;28;20108;-71
2021/01/08 04:30:06;;;;;;;27.92;13.65;;;2.20;99.90;;;;;;5075346;28;20048;-71
2021/01/08 04:32:32;;;;;;;25.33;12.40;;;2.10;99.90;;;;;;5075910;28;20036;-72
2021/01/08 04:34:59;;;;;;;24.65;12.00;;;2.20;99.90;;;;;;5075823;28;20369;-72
2021/01/08 04:37:24;;;;;;;28.63;13.55;;;2.10;99.90;;;;;;5075801;28;20090;-71
2021/01/08 04:39:50;;;;;;;22.88;12.15;;;2.00;99.90;;;;;;5075194;28;20473;-71
2021/01/08 04:42:15;;;;;;;22.25;12.32;;;2.10;99.90;;;;;;5075438;28;20083;-71
2021/01/08 04:44:42;;;;;;;23.25;12.15;;;2.10;99.90;;;;;;5075373;28;20535;-71
2021/01/08 04:47:11;;;;;;;25.27;11.52;;;2.00;99.90;;;;;;5075298;28;20381;-71
2021/01/08 04:49:38;;;;;;;23.15;10.88;;;2.00;99.90;;;;;;5075163;28;20025;-71
2021/01/08 04:52:07;;;;;;;23.55;11.15;;;2.00;99.90;;;;;;5073282;28;20016;-71
2021/01/08 04:54:32;;;;;;;22.67;11.13;;;2.10;99.90;;;;;;5075373;28;20028;-72
2021/01/08 04:56:59;;;;;;;25.05;12.02;;;2.10;99.90;;;;;;5074854;28;20020;-71
2021/01/08 04:59:26;;;;;;;26.73;11.68;;;2.00;99.90;;;;;;5074845;28;20157;-71
2021/01/08 05:01:52;;;;;;;20.58;10.88;;;1.90;99.90;;;;;;5075297;28;20021;-71
2021/01/08 05:04:18;;;;;;;25.50;12.18;;;1.90;99.90;;;;;;5074981;28;20025;-71
2021/01/08 05:06:44;;;;;;;20.25;10.63;;;2.00;99.90;;;;;;5075176;28;20108;-71
2021/01/08 05:09:10;;;;;;;21.48;10.80;;;2.00;99.90;;;;;;5074763;28;20078;-72
2021/01/08 05:11:35;;;;;;;20.13;10.43;;;1.90;99.90;;;;;;5075048;28;20036;-71
2021/01/08 05:14:03;;;;;;;22.40;10.70;;;1.90;99.90;;;;;;5073496;28;20021;-71
2021/01/08 05:16:31;;;;;;;23.35;10.95;;;1.90;99.90;;;;;;5074747;28;20073;-71
2021/01/08 05:18:58;;;;;;;22.40;10.85;;;1.90;99.90;;;;;;5074947;28;20020;-71
2021/01/08 05:21:25;;;;;;;20.73;10.68;;;1.90;99.90;;;;;;5074576;28;20017;-71
2021/01/08 05:23:51;;;;;;;22.02;11.15;;;1.90;99.90;;;;;;5073044;28;20029;-71
2021/01/08 05:26:17;;;;;;;23.55;10.95;;;1.90;99.90;;;;;;5074794;28;20043;-71
2021/01/08 05:28:49;;;;;;;19.50;10.10;;;1.90;99.90;;;;;;5074438;28;20454;-71
2021/01/08 05:31:16;;;;;;;21.52;10.57;;;2.00;99.90;;;;;;5074728;28;20030;-71
2021/01/08 05:33:43;;;;;;;21.98;11.07;;;1.90;99.90;;;;;;5074669;28;20442;-71
2021/01/08 05:36:11;;;;;;;24.33;12.05;;;1.90;99.90;;;;;;5074597;28;20024;-71
2021/01/08 05:38:40;;;;;;;25.95;12.40;;;1.80;99.90;;;;;;5074569;28;20067;-72
2021/01/08 05:41:07;;;;;;;24.10;12.60;;;1.90;99.90;;;;;;5074576;28;20048;-71
2021/01/08 05:43:33;;;;;;;24.35;11.88;;;1.90;99.90;;;;;;5074477;28;20025;-71
2021/01/08 05:46:23;;;;;;;23.20;12.13;;;1.90;99.90;;;;;;5074416;28;20478;-72
2021/01/08 05:48:51;;;;;;;23.00;11.75;;;1.90;99.90;;;;;;5074007;28;20024;-71
2021/01/08 05:51:18;;;;;;;24.88;12.55;;;1.90;99.90;;;;;;5074360;28;20048;-71
2021/01/08 05:53:47;;;;;;;24.55;11.68;;;1.90;99.90;;;;;;5072902;28;20355;-71
2021/01/08 05:56:15;;;;;;;25.05;11.57;;;1.90;99.90;;;;;;5072880;28;20017;-71
2021/01/08 05:58:42;;;;;;;23.42;11.68;;;1.90;99.90;;;;;;5074247;28;20461;-71
2021/01/08 06:01:07;;;;;;;24.35;11.80;;;1.80;99.90;;;;;;5074210;28;20032;-71
2021/01/08 06:03:33;;;;;;;21.77;11.10;;;1.90;99.90;;;;;;5073691;28;20020;-71
2021/01/08 06:06:01;;;;;;;27.60;12.18;;;1.90;99.90;;;;;;5073871;28;20016;-71
2021/01/08 06:08:38;;;;;;;26.67;12.38;;;1.90;99.90;;;;;;5072304;28;20028;-72
2021/01/08 06:11:07;;;;;;;24.23;11.60;;;1.80;99.90;;;;;;5074064;28;20339;-71
2021/01/08 06:13:34;;;;;;;26.05;12.68;;;1.90;99.90;;;;;;5074103;28;20017;-71
2021/01/08 06:16:02;;;;;;;27.35;13.07;;;1.80;99.90;;;;;;5073825;28;20454;-71
2021/01/08 06:18:28;;;;;;;25.92;12.43;;;1.80;99.90;;;;;;5074031;28;20369;-71
2021/01/08 06:21:05;;;;;;;26.17;13.10;;;1.80;99.90;;;;;;5074100;28;20044;-71
2021/01/08 06:26:17;;;;;;;27.77;12.60;;;1.90;99.90;;;;;;5112213;27;20429;-70
2021/01/08 06:28:47;;;;;;;23.92;12.32;;;1.80;99.90;;;;;;5112001;28;20101;-71
2021/01/08 06:31:44;;;;;;;28.15;13.65;;;1.80;99.90;;;;;;5111892;28;20016;-70
2021/01/08 06:34:10;;;;;;;26.05;13.02;;;1.90;99.90;;;;;;5110351;28;20024;-72
2021/01/08 06:36:37;;;;;;;26.13;12.05;;;1.90;99.90;;;;;;5111809;28;20043;-72
2021/01/08 06:39:06;;;;;;;25.88;13.30;;;1.90;99.90;;;;;;5111785;28;20028;-70
2021/01/08 06:41:32;;;;;;;26.83;12.57;;;1.80;99.90;;;;;;5111715;28;20024;-72
2021/01/08 06:44:01;;;;;;;29.77;13.73;;;1.80;99.90;;;;;;5111274;28;20045;-72
2021/01/08 06:46:37;;;;;;;28.90;14.02;;;1.80;99.90;;;;;;5111004;28;20012;-70
2021/01/08 06:49:07;;;;;;;33.08;15.10;;;1.80;99.90;;;;;;5111510;28;20027;-70
2021/01/08 06:51:34;;;;;;;26.95;13.52;;;1.80;99.90;;;;;;5111524;28;20076;-72
2021/01/08 06:54:03;;;;;;;28.77;14.10;;;1.80;99.90;;;;;;5111480;28;20016;-72
2021/01/08 06:56:31;;;;;;;30.30;14.18;;;1.80;99.90;;;;;;5111454;28;20012;-71
2021/01/08 06:58:57;;;;;;;31.45;14.73;;;1.80;99.90;;;;;;5111085;28;20489;-72
2021/01/08 07:01:32;;;;;;;28.00;13.35;;;1.70;99.90;;;;;;5110985;28;20112;-72
2021/01/08 07:03:58;;;;;;;27.80;12.80;;;1.80;99.90;;;;;;5111139;28;20023;-72
2021/01/08 07:06:24;;;;;;;27.17;13.98;;;1.80;99.90;;;;;;5111264;28;20024;-72
2021/01/08 07:08:49;;;;;;;29.20;14.93;;;1.80;99.90;;;;;;5110921;28;20024;-72
2021/01/08 07:11:22;;;;;;;26.75;13.40;;;1.80;99.90;;;;;;5110739;28;20419;-72
2021/01/08 07:13:47;;;;;;;28.15;14.10;;;1.80;99.90;;;;;;5111058;28;20023;-72
2021/01/08 07:16:20;;;;;;;28.55;13.77;;;1.70;99.90;;;;;;5109737;28;20035;-72
2021/01/08 07:18:46;;;;;;;26.77;12.75;;;1.70;99.90;;;;;;5110859;28;20046;-72
2021/01/08 07:21:23;;;;;;;27.90;14.02;;;1.70;99.90;;;;;;5109581;28;20062;-72
2021/01/08 07:23:51;;;;;;;27.98;13.35;;;1.80;99.90;;;;;;5110578;28;20338;-71
2021/01/08 07:26:18;;;;;;;28.42;13.77;;;1.80;99.90;;;;;;5105053;28;20032;-72
2021/01/08 07:28:49;;;;;;;27.60;13.40;;;1.80;99.90;;;;;;5109991;28;20366;-72
2021/01/08 07:31:14;;;;;;;25.70;12.95;;;1.80;99.90;;;;;;5110114;28;20012;-71
2021/01/08 07:33:46;;;;;;;28.15;14.07;;;1.70;99.90;;;;;;5109834;28;20069;-72
2021/01/08 07:36:28;;;;;;;25.95;12.10;;;1.80;99.90;;;;;;5104098;28;20385;-72
2021/01/08 07:38:55;;;;;;;27.83;13.27;;;1.70;99.90;;;;;;5096001;28;20107;-70
2021/01/08 07:41:40;;;;;;;25.35;12.48;;;1.70;99.90;;;;;;5096305;28;20488;-70
2021/01/08 07:44:30;;;;;;;27.73;13.57;;;1.70;99.90;;;;;;5096361;28;20020;-71
2021/01/08 07:46:55;;;;;;;25.40;12.27;;;1.70;99.90;;;;;;5096738;28;20016;-70
2021/01/08 07:49:28;;;;;;;28.52;12.52;;;1.70;99.90;;;;;;5097681;28;20035;-70
2021/01/08 07:51:54;;;;;;;23.98;12.70;;;1.70;99.90;;;;;;5076897;28;20418;-70
2021/01/08 07:54:55;;;;;;;22.40;12.05;;;1.70;99.90;;;;;;5095306;28;20034;-70
2021/01/08 07:57:20;;;;;;;23.27;11.68;;;1.80;99.90;;;;;;5096597;28;20022;-69
2021/01/08 07:59:46;;;;;;;23.08;11.70;;;1.80;99.90;;;;;;5096598;28;20106;-70
2021/01/08 08:02:12;;;;;;;23.73;12.13;;;1.80;99.90;;;;;;5096360;28;20481;-70
2021/01/08 08:04:37;;;;;;;22.20;11.70;;;1.80;99.90;;;;;;5096722;28;20020;-70
2021/01/08 08:07:03;;;;;;;21.48;11.25;;;1.80;99.90;;;;;;5096390;28;20547;-70
2021/01/08 08:09:29;;;;;;;26.95;13.82;;;1.80;99.90;;;;;;5096055;28;20358;-70
2021/01/08 08:11:55;;;;;;;24.00;12.27;;;1.70;99.90;;;;;;5095705;28;20024;-70
2021/01/08 08:14:22;;;;;;;28.90;13.82;;;1.80;99.90;;;;;;5094148;28;20039;-70
2021/01/08 08:16:49;;;;;;;22.60;11.48;;;1.80;99.90;;;;;;5095496;28;20020;-70
2021/01/08 08:19:15;;;;;;;28.38;12.57;;;1.90;99.90;;;;;;5095486;28;20465;-70
2021/01/08 08:21:47;;;;;;;22.52;11.77;;;1.90;99.90;;;;;;5095321;28;20051;-70
2021/01/08 08:24:15;;;;;;;28.00;12.88;;;1.90;99.90;;;;;;5095056;28;20132;-70
2021/01/08 08:26:41;;;;;;;24.88;13.00;;;1.90;99.90;;;;;;5095383;28;20377;-70
2021/01/08 08:29:09;;;;;;;22.77;12.82;;;1.90;99.90;;;;;;5094911;28;20020;-70
2021/01/08 08:31:38;;;;;;;25.05;12.85;;;2.00;99.90;;;;;;5095086;28;20020;-70
2021/01/08 08:34:05;;;;;;;25.08;12.63;;;2.00;99.90;;;;;;5094794;28;20028;-69
2021/01/08 08:36:32;;;;;;;24.83;14.55;;;2.00;99.90;;;;;;5093503;28;20020;-71
2021/01/08 08:38:59;;;;;;;24.65;12.77;;;2.00;99.90;;;;;;5095095;28;20099;-72
2021/01/08 08:41:26;;;;;;;26.25;14.02;;;2.10;99.90;;;;;;5094846;28;20485;-72
2021/01/08 08:43:59;;;;;;;21.83;12.65;;;2.10;99.90;;;;;;5094672;28;20048;-71
2021/01/08 08:46:37;;;;;;;21.35;11.90;;;2.00;99.90;;;;;;5095206;28;20012;-70
2021/01/08 08:49:06;;;;;;;22.83;11.77;;;2.10;99.90;;;;;;5093827;28;20461;-70
2021/01/08 08:51:32;;;;;;;23.13;11.80;;;2.10;99.90;;;;;;5094508;28;20035;-72
2021/01/08 08:53:58;;;;;;;18.92;10.70;;;2.10;99.90;;;;;;5094834;28;20027;-70
2021/01/08 08:56:24;;;;;;;20.55;10.07;;;2.10;99.90;;;;;;5094629;28;20034;-70
2021/01/08 08:58:50;;;;;;;22.27;10.52;;;2.10;99.90;;;;;;5093288;28;20106;-70
2021/01/08 09:01:15;;;;;;;18.67;10.50;;;2.00;99.90;;;;;;5094526;28;20039;-70
2021/01/08 09:03:40;;;;;;;26.95;10.88;;;2.10;99.90;;;;;;5094457;28;20104;-70
2021/01/08 09:06:10;;;;;;;18.65;10.02;;;2.20;99.90;;;;;;5093914;28;20419;-70
2021/01/08 09:08:38;;;;;;;17.88;10.02;;;2.20;99.90;;;;;;5094368;28;20024;-70
2021/01/08 09:11:29;;;;;;;17.27;9.55;;;2.20;99.90;;;;;;5094069;28;20024;-70
2021/01/08 09:14:13;;;;;;;19.33;9.65;;;2.30;99.90;;;;;;5094171;28;20458;-70
2021/01/08 09:16:52;;;;;;;19.95;10.88;;;2.30;99.90;;;;;;5094382;28;20056;-70
2021/01/08 09:19:41;;;;;;;24.15;12.95;;;2.30;99.90;;;;;;5094184;28;20016;-70
2021/01/08 09:22:08;;;;;;;19.38;10.43;;;2.30;99.90;;;;;;5093005;28;20027;-70
2021/01/08 09:24:35;;;;;;;18.83;10.05;;;2.40;99.90;;;;;;5093266;28;20044;-71
2021/01/08 09:27:04;;;;;;;18.60;9.90;;;2.40;99.90;;;;;;5075615;28;20339;-71
2021/01/08 09:29:32;;;;;;;18.85;10.25;;;2.30;99.90;;;;;;5093517;28;20017;-71
2021/01/08 09:32:00;;;;;;;16.15;9.15;;;2.40;99.90;;;;;;5093948;28;20461;-71
2021/01/08 09:34:27;;;;;;;17.33;9.70;;;2.40;99.90;;;;;;5092149;28;20036;-70
2021/01/08 09:36:54;;;;;;;19.48;10.05;;;2.40;99.90;;;;;;5094008;28;20016;-70
2021/01/08 09:39:22;;;;;;;18.63;10.32;;;2.40;99.90;;;;;;5093807;28;20020;-71
2021/01/08 09:41:57;;;;;;;19.67;9.93;;;2.60;99.90;;;;;;5093536;28;20346;-71
2021/01/08 09:44:33;;;;;;;18.20;9.15;;;2.60;99.90;;;;;;5093587;28;20389;-71
2021/01/08 09:47:01;;;;;;;17.30;9.43;;;2.60;99.90;;;;;;5093328;28;20028;-71
2021/01/08 09:49:52;;;;;;;17.50;9.88;;;2.60;99.90;;;;;;5093734;28;20448;-71
2021/01/08 09:52:27;;;;;;;21.13;10.05;;;2.70;99.90;;;;;;5092307;28;20370;-71
2021/01/08 09:54:52;;;;;;;15.20;8.57;;;2.60;99.90;;;;;;5091629;28;20031;-71
2021/01/08 09:57:35;;;;;;;18.50;9.98;;;2.70;99.90;;;;;;5093728;28;20020;-70
2021/01/08 10:00:04;;;;;;;16.48;9.00;;;2.70;99.90;;;;;;5093524;28;20066;-71
2021/01/08 10:02:48;;;;;;;25.00;12.32;;;2.60;99.90;;;;;;5093831;28;20042;-71
2021/01/08 10:08:00;;;;;;;17.52;9.50;;;2.60;99.90;;;;;;5110720;27;20347;-69
2021/01/08 10:13:12;;;;;;;18.77;10.32;;;2.70;99.90;;;;;;5090969;28;20345;-70
2021/01/08 10:15:40;;;;;;;20.00;9.18;;;2.70;99.90;;;;;;5090800;28;20051;-71
2021/01/08 10:18:08;;;;;;;19.83;10.35;;;2.70;99.90;;;;;;5089385;28;20069;-71
2021/01/08 10:20:42;;;;;;;23.48;11.27;;;2.70;99.90;;;;;;5090526;28;20016;-71
2021/01/08 10:23:10;;;;;;;21.00;10.13;;;2.80;99.90;;;;;;5090705;28;20039;-71
2021/01/08 10:25:36;;;;;;;20.20;10.82;;;2.80;99.90;;;;;;5090463;28;20020;-70
2021/01/08 10:28:22;;;;;;;19.23;10.65;;;2.80;99.90;;;;;;5089117;28;20035;-71
2021/01/08 10:30:50;;;;;;;19.48;11.15;;;2.90;99.90;;;;;;5090405;28;20085;-71
2021/01/08 10:33:18;;;;;;;17.50;10.25;;;3.00;99.90;;;;;;5090123;28;20103;-70
2021/01/08 10:35:48;;;;;;;17.00;9.55;;;3.10;99.90;;;;;;5090471;28;20452;-71
2021/01/08 10:38:13;;;;;;;18.02;10.13;;;3.20;99.90;;;;;;5089004;28;20024;-72
2021/01/08 10:40:39;;;;;;;19.77;10.75;;;3.30;99.90;;;;;;5076648;28;20051;-72
2021/01/08 10:43:05;;;;;;;15.65;9.50;;;3.20;99.90;;;;;;5069827;28;20056;-72
2021/01/08 10:45:30;;;;;;;15.93;9.13;;;3.20;99.90;;;;;;5069810;28;20024;-71
2021/01/08 10:47:56;;;;;;;17.83;10.50;;;3.20;99.90;;;;;;5069514;28;20067;-72
2021/01/08 10:50:21;;;;;;;18.00;9.98;;;3.20;99.90;;;;;;5070521;28;20032;-70
2021/01/08 10:52:47;;;;;;;21.30;10.35;;;3.30;99.90;;;;;;5068456;28;20474;-70
2021/01/08 10:55:12;;;;;;;16.45;9.77;;;3.30;99.90;;;;;;5069613;28;20029;-71
2021/01/08 10:57:39;;;;;;;15.32;9.88;;;3.30;99.90;;;;;;5069358;28;20029;-71
2021/01/08 11:00:07;;;;;;;16.30;10.02;;;3.30;99.90;;;;;;5069506;28;20036;-71
2021/01/08 11:02:33;;;;;;;16.05;9.38;;;3.40;99.90;;;;;;5069341;28;20102;-71
2021/01/08 11:04:58;;;;;;;16.70;9.25;;;3.50;99.90;;;;;;5069881;28;20060;-72
2021/01/08 11:07:24;;;;;;;15.18;9.30;;;3.60;99.90;;;;;;5069037;28;20033;-71
2021/01/08 11:09:50;;;;;;;14.27;8.43;;;3.60;99.90;;;;;;5068356;28;20099;-71
2021/01/08 11:12:16;;;;;;;14.40;9.00;;;3.60;99.90;;;;;;5069040;28;20224;-72
2021/01/08 11:14:41;;;;;;;13.65;8.43;;;3.50;99.90;;;;;;5069065;28;20056;-72
2021/01/08 11:17:07;;;;;;;15.07;8.93;;;3.50;99.90;;;;;;5069142;28;20037;-71
2021/01/08 11:19:32;;;;;;;12.43;8.32;;;3.40;99.90;;;;;;5073748;28;20024;-71
2021/01/08 11:21:58;;;;;;;15.30;9.02;;;3.40;99.90;;;;;;5089149;28;20027;-71
2021/01/08 11:24:23;;;;;;;16.98;8.98;;;3.50;99.90;;;;;;5076214;28;20385;-72
2021/01/08 11:26:49;;;;;;;14.15;8.60;;;3.40;99.90;;;;;;5075975;28;20031;-72
2021/01/08 11:29:14;;;;;;;15.82;9.45;;;3.50;99.90;;;;;;5075755;28;20028;-72
2021/01/08 11:31:41;;;;;;;14.60;9.20;;;3.40;99.90;;;;;;5075689;28;20028;-71
2021/01/08 11:34:07;;;;;;;17.30;8.95;;;3.40;99.90;;;;;;5075401;28;20032;-71
2021/01/08 11:36:33;;;;;;;18.23;9.57;;;3.50;99.90;;;;;;5073953;28;20389;-71
2021/01/08 11:38:59;;;;;;;14.55;8.18;;;3.50;99.90;;;;;;5075727;28;20068;-71
2021/01/08 11:41:25;;;;;;;16.05;7.78;;;3.50;99.90;;;;;;5075669;28;20028;-71
2021/01/08 11:43:51;;;;;;;14.07;7.95;;;3.50;99.90;;;;;;5075289;28;20035;-71
2021/01/08 11:46:18;;;;;;;12.43;7.80;;;3.50;99.90;;;;;;5075159;28;20029;-72
2021/01/08 11:48:43;;;;;;;13.10;7.65;;;3.50;99.90;;;;;;5073899;28;20040;-72
2021/01/08 11:51:14;;;;;;;11.95;6.68;;;3.40;99.90;;;;;;5073731;28;20036;-71
2021/01/08 11:53:41;;;;;;;12.60;7.57;;;3.40;99.90;;;;;;5074140;28;20028;-72
2021/01/08 11:56:08;;;;;;;11.85;6.90;;;3.50;99.90;;;;;;5074657;28;20021;-70
2021/01/08 11:58:36;;;;;;;11.90;7.40;;;3.50;99.90;;;;;;5074384;28;20360;-70
2021/01/08 12:01:01;;;;;;;12.30;7.40;;;3.50;99.90;;;;;;5075526;28;20090;-71
2021/01/08 12:03:27;;;;;;;12.10;7.15;;;3.50;99.90;;;;;;5074192;28;20439;-71
2021/01/08 12:05:53;;;;;;;12.60;6.97;;;3.50;99.90;;;;;;5074285;28;20035;-71
2021/01/08 12:08:19;;;;;;;15.30;7.75;;;3.40;99.90;;;;;;5075035;28;20032;-71
2021/01/08 12:10:44;;;;;;;12.07;7.55;;;3.40;99.90;;;;;;5074760;28;20024;-71
2021/01/08 12:13:10;;;;;;;15.05;8.27;;;3.30;99.90;;;;;;5074251;28;20025;-71
2021/01/08 12:15:35;;;;;;;19.45;9.95;;;3.50;99.90;;;;;;5075302;28;20382;-71
2021/01/08 12:18:01;;;;;;;12.50;7.28;;;3.40;99.90;;;;;;5074315;28;20035;-71
2021/01/08 12:20:26;;;;;;;12.75;7.45;;;3.30;99.90;;;;;;5075062;28;20080;-70
2021/01/08 12:22:52;;;;;;;14.10;7.85;;;3.30;99.90;;;;;;5075291;28;20032;-72
2021/01/08 12:25:18;;;;;;;15.32;8.32;;;3.30;99.90;;;;;;5074271;28;20021;-72
2021/01/08 12:27:44;;;;;;;13.40;8.40;;;3.30;99.90;;;;;;5074044;28;20021;-72
2021/01/08 12:30:10;;;;;;;14.75;8.10;;;3.30;99.90;;;;;;5074636;28;20492;-72
2021/01/08 12:32:36;;;;;;;14.65;8.25;;;3.20;99.90;;;;;;5074303;28;20476;-71
2021/01/08 12:35:02;;;;;;;13.00;7.88;;;3.20;99.90;;;;;;5073669;28;20025;-71
2021/01/08 12:37:28;;;;;;;13.43;7.63;;;3.20;99.90;;;;;;5074105;28;20106;-71
2021/01/08 12:39:54;;;;;;;17.15;8.90;;;3.20;99.90;;;;;;5074234;28;20034;-71
2021/01/08 12:42:19;;;;;;;17.98;8.95;;;3.20;99.90;;;;;;5074568;28;20020;-72
2021/01/08 12:44:45;;;;;;;16.65;9.13;;;3.20;99.90;;;;;;5073864;28;20035;-71
2021/01/08 12:47:10;;;;;;;15.63;9.40;;;3.10;99.90;;;;;;5053051;28;20025;-71
2021/01/08 12:49:36;;;;;;;19.85;10.20;;;3.10;99.90;;;;;;5054039;28;20036;-71
2021/01/08 12:52:02;;;;;;;17.92;9.77;;;3.10;99.90;;;;;;5054133;28;20029;-71